sensor_id;sensor_type;location;lat;lon;timestamp;temperature;humidity
14277;DHT22;7222;57.346;12.150;2023-04-24T00:01:04;7.10;99.90
14277;DHT22;7222;57.346;12.150;2023-04-24T00:03:32;6.90;99.90
14277;DHT22;7222;57.346;12.150;2023-04-24T00:06:00;6.90;99.90
14277;DHT22;7222;57.346;12.150;2023-04-24T00:08:29;7.00;99.90
14277;DHT22;7222;57.346;12.150;2023-04-24T00:10:56;7.10;99.90
14277;DHT22;7222;57.346;12.150;2023-04-24T00:13:23;6.90;99.90
14277;DHT22;7222;57.346;12.150;2023-04-24T00:15:50;6.70;99.90
14277;DHT22;7222;57.346;12.150;2023-04-24T00:18:17;6.90;99.90
14277;DHT22;7222;57.346;12.150;2023-04-24T00:20:44;6.90;99.90
14277;DHT22;7222;57.346;12.150;2023-04-24T00:23:12;6.90;99.90
14277;DHT22;7222;57.346;12.150;2023-04-24T00:25:40;6.90;99.90
14277;DHT22;7222;57.346;12.150;2023-04-24T00:28:07;6.90;99.90
14277;DHT22;7222;57.346;12.150;2023-04-24T00:30:34;6.80;99.90
14277;DHT22;7222;57.346;12.150;2023-04-24T00:33:01;6.80;99.90
14277;DHT22;7222;57.346;12.150;2023-04-24T00:35:29;6.80;99.90
14277;DHT22;7222;57.346;12.150;2023-04-24T00:37:55;6.80;99.90
14277;DHT22;7222;57.346;12.150;2023-04-24T00:40:22;6.90;99.90
14277;DHT22;7222;57.346;12.150;2023-04-24T00:42:51;6.90;99.90
14277;DHT22;7222;57.346;12.150;2023-04-24T00:45:18;6.80;99.90
14277;DHT22;7222;57.346;12.150;2023-04-24T00:47:46;6.70;99.90
14277;DHT22;7222;57.346;12.150;2023-04-24T00:50:15;6.70;99.90
14277;DHT22;7222;57.346;12.150;2023-04-24T00:52:43;6.80;99.90
14277;DHT22;7222;57.346;12.150;2023-04-24T00:55:10;6.80;99.90
14277;DHT22;7222;57.346;12.150;2023-04-24T00:57:37;6.90;99.90
14277;DHT22;7222;57.346;12.150;2023-04-24T01:00:06;6.90;99.90
14277;DHT22;7222;57.346;12.150;2023-04-24T01:02:37;7.00;99.90
14277;DHT22;7222;57.346;12.150;2023-04-24T01:05:09;6.90;99.90
14277;DHT22;7222;57.346;12.150;2023-04-24T01:07:38;6.90;99.90
14277;DHT22;7222;57.346;12.150;2023-04-24T01:10:07;7.10;99.90
14277;DHT22;7222;57.346;12.150;2023-04-24T01:12:35;7.10;99.90
14277;DHT22;7222;57.346;12.150;2023-04-24T01:15:02;7.20;99.90
14277;DHT22;7222;57.346;12.150;2023-04-24T01:17:32;7.20;99.90
14277;DHT22;7222;57.346;12.150;2023-04-24T01:19:59;7.10;99.90
14277;DHT22;7222;57.346;12.150;2023-04-24T01:22:33;7.00;99.90
14277;DHT22;7222;57.346;12.150;2023-04-24T01:25:00;7.20;99.90
14277;DHT22;7222;57.346;12.150;2023-04-24T01:27:27;7.10;99.90
14277;DHT22;7222;57.346;12.150;2023-04-24T01:29:54;7.20;99.90
14277;DHT22;7222;57.346;12.150;2023-04-24T01:32:21;7.30;99.90
14277;DHT22;7222;57.346;12.150;2023-04-24T01:34:48;7.20;99.90
14277;DHT22;7222;57.346;12.150;2023-04-24T01:37:15;7.20;99.90
14277;DHT22;7222;57.346;12.150;2023-04-24T01:39:44;7.20;99.90
14277;DHT22;7222;57.346;12.150;2023-04-24T01:42:12;7.10;99.90
14277;DHT22;7222;57.346;12.150;2023-04-24T01:44:40;7.20;99.90
14277;DHT22;7222;57.346;12.150;2023-04-24T01:47:07;7.10;99.90
14277;DHT22;7222;57.346;12.150;2023-04-24T01:49:34;7.10;99.90
14277;DHT22;7222;57.346;12.150;2023-04-24T01:52:01;7.10;99.90
14277;DHT22;7222;57.346;12.150;2023-04-24T01:54:29;7.10;99.90
14277;DHT22;7222;57.346;12.150;2023-04-24T01:56:57;7.10;99.90
14277;DHT22;7222;57.346;12.150;2023-04-24T01:59:25;6.80;99.90
14277;DHT22;7222;57.346;12.150;2023-04-24T02:01:53;6.80;99.90
14277;DHT22;7222;57.346;12.150;2023-04-24T02:04:20;6.80;99.90
14277;DHT22;7222;57.346;12.150;2023-04-24T02:06:47;7.00;99.90
14277;DHT22;7222;57.346;12.150;2023-04-24T02:09:15;7.00;99.90
14277;DHT22;7222;57.346;12.150;2023-04-24T02:11:42;7.10;99.90
14277;DHT22;7222;57.346;12.150;2023-04-24T02:14:10;7.00;99.90
14277;DHT22;7222;57.346;12.150;2023-04-24T02:16:38;7.00;99.90
14277;DHT22;7222;57.346;12.150;2023-04-24T02:19:05;6.80;99.90
14277;DHT22;7222;57.346;12.150;2023-04-24T02:21:32;7.00;99.90
14277;DHT22;7222;57.346;12.150;2023-04-24T02:23:59;7.00;99.90
14277;DHT22;7222;57.346;12.150;2023-04-24T02:26:26;7.00;99.90
14277;DHT22;7222;57.346;12.150;2023-04-24T02:28:53;7.10;99.90
14277;DHT22;7222;57.346;12.150;2023-04-24T02:31:22;7.10;99.90
14277;DHT22;7222;57.346;12.150;2023-04-24T02:33:49;7.10;99.90
14277;DHT22;7222;57.346;12.150;2023-04-24T02:36:15;7.10;99.90
14277;DHT22;7222;57.346;12.150;2023-04-24T02:38:42;7.20;99.90
14277;DHT22;7222;57.346;12.150;2023-04-24T02:41:09;7.00;99.90
14277;DHT22;7222;57.346;12.150;2023-04-24T02:43:36;7.20;99.90
14277;DHT22;7222;57.346;12.150;2023-04-24T02:46:03;7.20;99.90
14277;DHT22;7222;57.346;12.150;2023-04-24T02:48:31;7.20;99.90
14277;DHT22;7222;57.346;12.150;2023-04-24T02:50:59;7.20;99.90
14277;DHT22;7222;57.346;12.150;2023-04-24T02:53:26;7.20;99.90
14277;DHT22;7222;57.346;12.150;2023-04-24T02:55:55;7.10;99.90
14277;DHT22;7222;57.346;12.150;2023-04-24T02:58:22;7.00;99.90
14277;DHT22;7222;57.346;12.150;2023-04-24T03:00:49;7.00;99.90
14277;DHT22;7222;57.346;12.150;2023-04-24T03:03:19;7.10;99.90
14277;DHT22;7222;57.346;12.150;2023-04-24T03:05:47;7.10;99.90
14277;DHT22;7222;57.346;12.150;2023-04-24T03:08:14;7.10;99.90
14277;DHT22;7222;57.346;12.150;2023-04-24T03:10:42;7.10;99.90
14277;DHT22;7222;57.346;12.150;2023-04-24T03:13:09;7.00;99.90
14277;DHT22;7222;57.346;12.150;2023-04-24T03:15:36;6.90;99.90
14277;DHT22;7222;57.346;12.150;2023-04-24T03:18:03;6.80;99.90
14277;DHT22;7222;57.346;12.150;2023-04-24T03:20:30;6.80;99.90
14277;DHT22;7222;57.346;12.150;2023-04-24T03:22:58;6.70;99.90
14277;DHT22;7222;57.346;12.150;2023-04-24T03:25:25;6.80;99.90
14277;DHT22;7222;57.346;12.150;2023-04-24T03:27:52;6.80;99.90
14277;DHT22;7222;57.346;12.150;2023-04-24T03:30:20;6.80;99.90
14277;DHT22;7222;57.346;12.150;2023-04-24T03:32:47;6.70;99.90
14277;DHT22;7222;57.346;12.150;2023-04-24T03:35:14;6.90;99.90
14277;DHT22;7222;57.346;12.150;2023-04-24T03:37:41;6.90;99.90
14277;DHT22;7222;57.346;12.150;2023-04-24T03:40:10;6.90;99.90
14277;DHT22;7222;57.346;12.150;2023-04-24T03:42:37;6.90;99.90
14277;DHT22;7222;57.346;12.150;2023-04-24T03:45:05;7.00;99.90
14277;DHT22;7222;57.346;12.150;2023-04-24T03:47:32;6.90;99.90
14277;DHT22;7222;57.346;12.150;2023-04-24T03:49:59;7.20;99.90
14277;DHT22;7222;57.346;12.150;2023-04-24T03:52:27;7.10;99.90
14277;DHT22;7222;57.346;12.150;2023-04-24T03:54:54;7.00;99.90
14277;DHT22;7222;57.346;12.150;2023-04-24T03:57:22;6.90;99.90
14277;DHT22;7222;57.346;12.150;2023-04-24T03:59:49;7.10;99.90
14277;DHT22;7222;57.346;12.150;2023-04-24T04:02:15;7.10;99.90
14277;DHT22;7222;57.346;12.150;2023-04-24T04:04:42;7.20;99.90
14277;DHT22;7222;57.346;12.150;2023-04-24T04:07:09;7.20;99.90
14277;DHT22;7222;57.346;12.150;2023-04-24T04:09:36;7.30;99.90
14277;DHT22;7222;57.346;12.150;2023-04-24T04:12:03;7.40;99.90
14277;DHT22;7222;57.346;12.150;2023-04-24T04:14:32;7.40;99.90
14277;DHT22;7222;57.346;12.150;2023-04-24T04:16:59;7.40;99.90
14277;DHT22;7222;57.346;12.150;2023-04-24T04:19:26;7.30;99.90
14277;DHT22;7222;57.346;12.150;2023-04-24T04:21:53;7.30;99.90
14277;DHT22;7222;57.346;12.150;2023-04-24T04:24:21;7.30;99.90
14277;DHT22;7222;57.346;12.150;2023-04-24T04:26:49;7.20;99.90
14277;DHT22;7222;57.346;12.150;2023-04-24T04:29:16;7.40;99.90
14277;DHT22;7222;57.346;12.150;2023-04-24T04:31:45;7.40;99.90
14277;DHT22;7222;57.346;12.150;2023-04-24T04:34:12;7.40;99.90
14277;DHT22;7222;57.346;12.150;2023-04-24T04:36:39;7.40;99.90
14277;DHT22;7222;57.346;12.150;2023-04-24T04:39:06;7.50;99.90
14277;DHT22;7222;57.346;12.150;2023-04-24T04:41:33;7.40;99.90
14277;DHT22;7222;57.346;12.150;2023-04-24T04:44:01;7.70;99.90
14277;DHT22;7222;57.346;12.150;2023-04-24T04:46:30;7.70;99.90
14277;DHT22;7222;57.346;12.150;2023-04-24T04:48:59;7.60;99.90
14277;DHT22;7222;57.346;12.150;2023-04-24T04:51:26;7.70;99.90
14277;DHT22;7222;57.346;12.150;2023-04-24T04:53:54;7.60;99.90
14277;DHT22;7222;57.346;12.150;2023-04-24T04:56:21;7.70;99.90
14277;DHT22;7222;57.346;12.150;2023-04-24T04:58:48;7.80;99.90
14277;DHT22;7222;57.346;12.150;2023-04-24T05:01:15;7.90;99.90
14277;DHT22;7222;57.346;12.150;2023-04-24T05:03:41;7.90;99.90
14277;DHT22;7222;57.346;12.150;2023-04-24T05:06:10;8.00;99.90
14277;DHT22;7222;57.346;12.150;2023-04-24T05:08:36;8.10;99.90
14277;DHT22;7222;57.346;12.150;2023-04-24T05:11:03;8.20;99.90
14277;DHT22;7222;57.346;12.150;2023-04-24T05:13:30;8.20;99.90
14277;DHT22;7222;57.346;12.150;2023-04-24T05:15:57;8.20;99.90
14277;DHT22;7222;57.346;12.150;2023-04-24T05:18:24;8.20;99.90
14277;DHT22;7222;57.346;12.150;2023-04-24T05:20:52;8.20;99.90
14277;DHT22;7222;57.346;12.150;2023-04-24T05:23:20;8.30;99.90
14277;DHT22;7222;57.346;12.150;2023-04-24T05:25:47;8.30;99.90
14277;DHT22;7222;57.346;12.150;2023-04-24T05:28:14;8.30;99.90
14277;DHT22;7222;57.346;12.150;2023-04-24T05:30:40;8.30;99.90
14277;DHT22;7222;57.346;12.150;2023-04-24T05:33:07;8.30;99.90
14277;DHT22;7222;57.346;12.150;2023-04-24T05:35:35;8.20;99.90
14277;DHT22;7222;57.346;12.150;2023-04-24T05:38:02;8.30;99.90
14277;DHT22;7222;57.346;12.150;2023-04-24T05:40:31;8.40;99.90
14277;DHT22;7222;57.346;12.150;2023-04-24T05:42:57;8.30;99.90
14277;DHT22;7222;57.346;12.150;2023-04-24T05:45:24;8.40;99.90
14277;DHT22;7222;57.346;12.150;2023-04-24T05:47:52;8.50;99.90
14277;DHT22;7222;57.346;12.150;2023-04-24T05:50:19;8.60;99.90
14277;DHT22;7222;57.346;12.150;2023-04-24T05:52:46;8.60;99.90
14277;DHT22;7222;57.346;12.150;2023-04-24T05:55:13;8.50;99.90
14277;DHT22;7222;57.346;12.150;2023-04-24T05:57:44;8.50;99.90
14277;DHT22;7222;57.346;12.150;2023-04-24T06:00:12;8.70;99.90
14277;DHT22;7222;57.346;12.150;2023-04-24T06:02:39;8.70;99.90
14277;DHT22;7222;57.346;12.150;2023-04-24T06:05:07;8.70;99.90
14277;DHT22;7222;57.346;12.150;2023-04-24T06:07:35;8.70;99.90
14277;DHT22;7222;57.346;12.150;2023-04-24T06:10:02;8.70;99.90
14277;DHT22;7222;57.346;12.150;2023-04-24T06:12:29;8.80;99.90
14277;DHT22;7222;57.346;12.150;2023-04-24T06:14:57;8.90;99.90
14277;DHT22;7222;57.346;12.150;2023-04-24T06:17:24;8.90;99.90
14277;DHT22;7222;57.346;12.150;2023-04-24T06:19:51;8.90;99.90
14277;DHT22;7222;57.346;12.150;2023-04-24T06:22:17;9.00;99.90
14277;DHT22;7222;57.346;12.150;2023-04-24T06:24:44;9.10;99.90
14277;DHT22;7222;57.346;12.150;2023-04-24T06:27:12;8.90;99.90
14277;DHT22;7222;57.346;12.150;2023-04-24T06:29:39;9.00;99.90
14277;DHT22;7222;57.346;12.150;2023-04-24T06:32:08;9.00;99.90
14277;DHT22;7222;57.346;12.150;2023-04-24T06:34:35;9.00;99.90
14277;DHT22;7222;57.346;12.150;2023-04-24T06:37:02;9.00;99.90
14277;DHT22;7222;57.346;12.150;2023-04-24T06:39:29;8.90;99.90
14277;DHT22;7222;57.346;12.150;2023-04-24T06:41:56;8.90;99.90
14277;DHT22;7222;57.346;12.150;2023-04-24T06:44:23;8.90;99.90
14277;DHT22;7222;57.346;12.150;2023-04-24T06:46:50;9.10;99.90
14277;DHT22;7222;57.346;12.150;2023-04-24T06:49:18;9.10;99.90
14277;DHT22;7222;57.346;12.150;2023-04-24T06:51:45;9.00;99.90
14277;DHT22;7222;57.346;12.150;2023-04-24T06:54:12;9.00;99.90
14277;DHT22;7222;57.346;12.150;2023-04-24T06:56:39;9.00;99.90
14277;DHT22;7222;57.346;12.150;2023-04-24T06:59:06;9.10;99.90
14277;DHT22;7222;57.346;12.150;2023-04-24T07:01:33;9.30;99.90
14277;DHT22;7222;57.346;12.150;2023-04-24T07:04:00;9.10;99.90
14277;DHT22;7222;57.346;12.150;2023-04-24T07:06:29;9.10;99.90
14277;DHT22;7222;57.346;12.150;2023-04-24T07:08:57;9.20;99.90
14277;DHT22;7222;57.346;12.150;2023-04-24T07:11:25;9.10;99.90
14277;DHT22;7222;57.346;12.150;2023-04-24T07:13:54;9.10;99.90
14277;DHT22;7222;57.346;12.150;2023-04-24T07:16:21;9.10;99.90
14277;DHT22;7222;57.346;12.150;2023-04-24T07:18:48;9.00;99.90
14277;DHT22;7222;57.346;12.150;2023-04-24T07:21:15;9.00;99.90
14277;DHT22;7222;57.346;12.150;2023-04-24T07:23:43;9.10;99.90
14277;DHT22;7222;57.346;12.150;2023-04-24T07:26:10;9.10;99.90
14277;DHT22;7222;57.346;12.150;2023-04-24T07:28:37;9.00;99.90
14277;DHT22;7222;57.346;12.150;2023-04-24T07:31:04;9.10;99.90
14277;DHT22;7222;57.346;12.150;2023-04-24T07:33:31;9.10;99.90
14277;DHT22;7222;57.346;12.150;2023-04-24T07:35:58;9.10;99.90
14277;DHT22;7222;57.346;12.150;2023-04-24T07:38:26;9.10;99.90
14277;DHT22;7222;57.346;12.150;2023-04-24T07:40:54;9.00;99.90
14277;DHT22;7222;57.346;12.150;2023-04-24T07:43:22;9.00;99.90
14277;DHT22;7222;57.346;12.150;2023-04-24T07:45:49;9.20;99.90
14277;DHT22;7222;57.346;12.150;2023-04-24T07:48:17;9.20;99.90
14277;DHT22;7222;57.346;12.150;2023-04-24T07:50:44;9.20;99.90
14277;DHT22;7222;57.346;12.150;2023-04-24T07:53:11;9.20;99.90
14277;DHT22;7222;57.346;12.150;2023-04-24T07:55:38;9.10;99.90
14277;DHT22;7222;57.346;12.150;2023-04-24T07:58:06;9.30;99.90
14277;DHT22;7222;57.346;12.150;2023-04-24T08:00:33;9.20;99.90
14277;DHT22;7222;57.346;12.150;2023-04-24T08:03:00;9.20;99.90
14277;DHT22;7222;57.346;12.150;2023-04-24T08:05:27;9.30;99.90
14277;DHT22;7222;57.346;12.150;2023-04-24T08:07:55;9.20;99.90
14277;DHT22;7222;57.346;12.150;2023-04-24T08:10:22;9.20;99.90
14277;DHT22;7222;57.346;12.150;2023-04-24T08:12:49;9.20;99.90
14277;DHT22;7222;57.346;12.150;2023-04-24T08:15:18;9.20;99.90
14277;DHT22;7222;57.346;12.150;2023-04-24T08:17:45;9.20;99.90
14277;DHT22;7222;57.346;12.150;2023-04-24T08:20:12;9.20;99.90
14277;DHT22;7222;57.346;12.150;2023-04-24T08:22:40;9.20;99.90
14277;DHT22;7222;57.346;12.150;2023-04-24T08:25:08;9.40;99.90
14277;DHT22;7222;57.346;12.150;2023-04-24T08:27:35;9.30;99.90
14277;DHT22;7222;57.346;12.150;2023-04-24T08:30:03;9.40;99.90
14277;DHT22;7222;57.346;12.150;2023-04-24T08:32:31;9.40;99.90
14277;DHT22;7222;57.346;12.150;2023-04-24T08:34:59;9.40;99.90
14277;DHT22;7222;57.346;12.150;2023-04-24T08:37:27;9.40;99.90
14277;DHT22;7222;57.346;12.150;2023-04-24T08:39:54;9.40;99.90
14277;DHT22;7222;57.346;12.150;2023-04-24T08:42:21;9.50;99.90
14277;DHT22;7222;57.346;12.150;2023-04-24T08:44:49;9.40;99.90
14277;DHT22;7222;57.346;12.150;2023-04-24T08:47:16;9.40;99.90
14277;DHT22;7222;57.346;12.150;2023-04-24T08:49:48;9.50;99.90
14277;DHT22;7222;57.346;12.150;2023-04-24T08:52:16;9.60;99.90
14277;DHT22;7222;57.346;12.150;2023-04-24T08:54:46;9.60;99.90
14277;DHT22;7222;57.346;12.150;2023-04-24T08:57:14;9.60;99.90
14277;DHT22;7222;57.346;12.150;2023-04-24T08:59:42;9.80;99.90
14277;DHT22;7222;57.346;12.150;2023-04-24T09:02:10;9.70;99.90
14277;DHT22;7222;57.346;12.150;2023-04-24T09:04:37;9.80;99.90
14277;DHT22;7222;57.346;12.150;2023-04-24T09:07:06;9.80;99.90
14277;DHT22;7222;57.346;12.150;2023-04-24T09:09:34;10.00;99.90
14277;DHT22;7222;57.346;12.150;2023-04-24T09:12:02;10.00;99.90
14277;DHT22;7222;57.346;12.150;2023-04-24T09:14:29;10.00;99.90
14277;DHT22;7222;57.346;12.150;2023-04-24T09:16:57;10.10;99.90
14277;DHT22;7222;57.346;12.150;2023-04-24T09:19:24;10.00;97.10
14277;DHT22;7222;57.346;12.150;2023-04-24T09:21:52;10.20;99.90
14277;DHT22;7222;57.346;12.150;2023-04-24T09:24:21;10.30;99.90
14277;DHT22;7222;57.346;12.150;2023-04-24T09:26:55;10.30;99.90
14277;DHT22;7222;57.346;12.150;2023-04-24T09:29:23;10.30;99.90
14277;DHT22;7222;57.346;12.150;2023-04-24T09:31:50;10.50;99.90
14277;DHT22;7222;57.346;12.150;2023-04-24T09:34:21;10.60;99.90
14277;DHT22;7222;57.346;12.150;2023-04-24T09:36:49;10.70;99.90
14277;DHT22;7222;57.346;12.150;2023-04-24T09:39:17;10.80;99.90
14277;DHT22;7222;57.346;12.150;2023-04-24T09:41:48;10.80;99.90
14277;DHT22;7222;57.346;12.150;2023-04-24T09:44:17;10.90;99.90
14277;DHT22;7222;57.346;12.150;2023-04-24T09:46:48;10.90;99.90
14277;DHT22;7222;57.346;12.150;2023-04-24T09:49:21;11.00;99.90
14277;DHT22;7222;57.346;12.150;2023-04-24T09:51:48;11.10;99.90
14277;DHT22;7222;57.346;12.150;2023-04-24T09:54:17;11.00;99.90
14277;DHT22;7222;57.346;12.150;2023-04-24T09:56:47;11.00;99.90
14277;DHT22;7222;57.346;12.150;2023-04-24T09:59:16;11.30;99.90
14277;DHT22;7222;57.346;12.150;2023-04-24T10:01:44;11.50;99.90
14277;DHT22;7222;57.346;12.150;2023-04-24T10:04:21;11.70;99.90
14277;DHT22;7222;57.346;12.150;2023-04-24T10:06:50;12.20;99.90
14277;DHT22;7222;57.346;12.150;2023-04-24T10:09:18;12.60;99.90
14277;DHT22;7222;57.346;12.150;2023-04-24T10:11:48;12.60;77.90
14277;DHT22;7222;57.346;12.150;2023-04-24T10:14:16;13.10;99.90
14277;DHT22;7222;57.346;12.150;2023-04-24T10:16:45;13.10;99.90
14277;DHT22;7222;57.346;12.150;2023-04-24T10:19:13;13.20;1.00
14277;DHT22;7222;57.346;12.150;2023-04-24T10:21:43;13.40;1.00
14277;DHT22;7222;57.346;12.150;2023-04-24T10:24:12;13.30;1.00
14277;DHT22;7222;57.346;12.150;2023-04-24T10:26:40;13.40;99.90
14277;DHT22;7222;57.346;12.150;2023-04-24T10:29:10;13.20;99.90
14277;DHT22;7222;57.346;12.150;2023-04-24T10:31:38;13.10;99.90
14277;DHT22;7222;57.346;12.150;2023-04-24T10:34:07;13.20;99.90
14277;DHT22;7222;57.346;12.150;2023-04-24T10:36:35;13.40;1.00
14277;DHT22;7222;57.346;12.150;2023-04-24T10:39:06;13.60;19.10
14277;DHT22;7222;57.346;12.150;2023-04-24T10:41:37;13.60;16.20
14277;DHT22;7222;57.346;12.150;2023-04-24T10:44:05;13.60;91.40
14277;DHT22;7222;57.346;12.150;2023-04-24T10:46:33;13.80;99.90
14277;DHT22;7222;57.346;12.150;2023-04-24T10:49:04;14.10;99.90
14277;DHT22;7222;57.346;12.150;2023-04-24T10:51:45;14.30;1.00
14277;DHT22;7222;57.346;12.150;2023-04-24T10:54:24;14.20;99.90
14277;DHT22;7222;57.346;12.150;2023-04-24T10:56:51;14.40;80.50
14277;DHT22;7222;57.346;12.150;2023-04-24T10:59:25;14.10;99.90
14277;DHT22;7222;57.346;12.150;2023-04-24T11:01:55;14.30;99.90
14277;DHT22;7222;57.346;12.150;2023-04-24T11:04:33;14.30;99.90
14277;DHT22;7222;57.346;12.150;2023-04-24T11:07:03;14.30;99.90
14277;DHT22;7222;57.346;12.150;2023-04-24T11:09:31;14.60;99.90
14277;DHT22;7222;57.346;12.150;2023-04-24T11:12:05;14.60;1.00
14277;DHT22;7222;57.346;12.150;2023-04-24T11:15:00;15.00;1.00
14277;DHT22;7222;57.346;12.150;2023-04-24T11:17:29;15.00;1.00
14277;DHT22;7222;57.346;12.150;2023-04-24T11:20:01;15.20;99.90
14277;DHT22;7222;57.346;12.150;2023-04-24T11:22:31;15.60;1.00
14277;DHT22;7222;57.346;12.150;2023-04-24T11:25:00;15.80;1.00
14277;DHT22;7222;57.346;12.150;2023-04-24T11:27:30;15.50;99.90
14277;DHT22;7222;57.346;12.150;2023-04-24T11:30:03;15.30;99.90
14277;DHT22;7222;57.346;12.150;2023-04-24T11:32:35;15.20;99.90
14277;DHT22;7222;57.346;12.150;2023-04-24T11:35:04;14.90;99.90
14277;DHT22;7222;57.346;12.150;2023-04-24T11:37:35;15.20;1.00
14277;DHT22;7222;57.346;12.150;2023-04-24T11:40:03;14.70;1.00
14277;DHT22;7222;57.346;12.150;2023-04-24T11:42:34;14.30;1.00
14277;DHT22;7222;57.346;12.150;2023-04-24T11:45:01;14.50;99.40
14277;DHT22;7222;57.346;12.150;2023-04-24T11:47:31;14.30;99.90
14277;DHT22;7222;57.346;12.150;2023-04-24T11:50:00;14.20;99.90
14277;DHT22;7222;57.346;12.150;2023-04-24T11:52:27;13.90;99.90
14277;DHT22;7222;57.346;12.150;2023-04-24T11:54:54;13.40;1.00
14277;DHT22;7222;57.346;12.150;2023-04-24T11:57:21;13.70;1.00
14277;DHT22;7222;57.346;12.150;2023-04-24T11:59:52;13.70;1.00
14277;DHT22;7222;57.346;12.150;2023-04-24T12:02:23;13.40;1.00
14277;DHT22;7222;57.346;12.150;2023-04-24T12:04:52;13.20;99.90
14277;DHT22;7222;57.346;12.150;2023-04-24T12:07:19;13.20;1.00
14277;DHT22;7222;57.346;12.150;2023-04-24T12:09:48;13.60;99.90
14277;DHT22;7222;57.346;12.150;2023-04-24T12:12:16;13.40;1.00
14277;DHT22;7222;57.346;12.150;2023-04-24T12:14:45;13.40;1.00
14277;DHT22;7222;57.346;12.150;2023-04-24T12:17:12;13.40;24.80
14277;DHT22;7222;57.346;12.150;2023-04-24T12:19:45;13.60;1.00
14277;DHT22;7222;57.346;12.150;2023-04-24T12:22:13;13.30;99.90
14277;DHT22;7222;57.346;12.150;2023-04-24T12:24:59;13.50;1.00
14277;DHT22;7222;57.346;12.150;2023-04-24T12:27:28;13.20;99.90
14277;DHT22;7222;57.346;12.150;2023-04-24T12:29:56;13.10;1.00
14277;DHT22;7222;57.346;12.150;2023-04-24T12:32:24;13.10;57.50
14277;DHT22;7222;57.346;12.150;2023-04-24T12:34:52;13.10;99.90
14277;DHT22;7222;57.346;12.150;2023-04-24T12:37:20;13.00;99.90
14277;DHT22;7222;57.346;12.150;2023-04-24T12:40:01;13.00;1.00
14277;DHT22;7222;57.346;12.150;2023-04-24T12:42:29;13.00;1.00
14277;DHT22;7222;57.346;12.150;2023-04-24T12:44:57;13.00;99.90
14277;DHT22;7222;57.346;12.150;2023-04-24T12:47:26;13.20;1.00
14277;DHT22;7222;57.346;12.150;2023-04-24T12:49:53;13.20;99.90
14277;DHT22;7222;57.346;12.150;2023-04-24T12:52:22;13.30;1.00
14277;DHT22;7222;57.346;12.150;2023-04-24T12:54:49;13.50;1.00
14277;DHT22;7222;57.346;12.150;2023-04-24T12:57:17;13.50;22.80
14277;DHT22;7222;57.346;12.150;2023-04-24T12:59:44;13.60;99.90
14277;DHT22;7222;57.346;12.150;2023-04-24T13:02:11;13.60;99.90
14277;DHT22;7222;57.346;12.150;2023-04-24T13:04:38;13.80;1.00
14277;DHT22;7222;57.346;12.150;2023-04-24T13:07:05;13.80;1.00
14277;DHT22;7222;57.346;12.150;2023-04-24T13:09:34;14.00;99.90
14277;DHT22;7222;57.346;12.150;2023-04-24T13:12:02;14.10;1.00
14277;DHT22;7222;57.346;12.150;2023-04-24T13:14:31;13.90;99.90
14277;DHT22;7222;57.346;12.150;2023-04-24T13:16:58;13.90;1.00
14277;DHT22;7222;57.346;12.150;2023-04-24T13:19:26;13.70;99.90
14277;DHT22;7222;57.346;12.150;2023-04-24T13:21:54;13.60;40.40
14277;DHT22;7222;57.346;12.150;2023-04-24T13:24:23;13.50;99.90
14277;DHT22;7222;57.346;12.150;2023-04-24T13:26:52;13.40;1.00
14277;DHT22;7222;57.346;12.150;2023-04-24T13:29:19;13.40;99.90
14277;DHT22;7222;57.346;12.150;2023-04-24T13:31:47;13.30;99.90
14277;DHT22;7222;57.346;12.150;2023-04-24T13:34:14;13.20;69.50
14277;DHT22;7222;57.346;12.150;2023-04-24T13:36:41;13.30;99.90
14277;DHT22;7222;57.346;12.150;2023-04-24T13:39:08;13.20;1.00
14277;DHT22;7222;57.346;12.150;2023-04-24T13:41:36;13.30;17.10
14277;DHT22;7222;57.346;12.150;2023-04-24T13:44:05;13.30;1.00
14277;DHT22;7222;57.346;12.150;2023-04-24T13:46:32;13.20;99.90
14277;DHT22;7222;57.346;12.150;2023-04-24T13:48:59;13.20;1.00
14277;DHT22;7222;57.346;12.150;2023-04-24T13:51:26;13.10;99.90
14277;DHT22;7222;57.346;12.150;2023-04-24T13:53:53;13.20;1.00
14277;DHT22;7222;57.346;12.150;2023-04-24T13:56:21;13.10;1.00
14277;DHT22;7222;57.346;12.150;2023-04-24T13:58:49;13.10;99.90
14277;DHT22;7222;57.346;12.150;2023-04-24T14:01:17;13.10;99.90
14277;DHT22;7222;57.346;12.150;2023-04-24T14:03:44;13.20;99.90
14277;DHT22;7222;57.346;12.150;2023-04-24T14:06:11;13.30;99.90
14277;DHT22;7222;57.346;12.150;2023-04-24T14:08:38;13.10;99.90
14277;DHT22;7222;57.346;12.150;2023-04-24T14:11:05;13.00;99.90
14277;DHT22;7222;57.346;12.150;2023-04-24T14:13:32;13.00;99.90
14277;DHT22;7222;57.346;12.150;2023-04-24T14:15:59;13.00;99.90
14277;DHT22;7222;57.346;12.150;2023-04-24T14:18:27;13.10;99.90
14277;DHT22;7222;57.346;12.150;2023-04-24T14:20:54;13.10;91.20
14277;DHT22;7222;57.346;12.150;2023-04-24T14:23:22;13.10;1.00
14277;DHT22;7222;57.346;12.150;2023-04-24T14:25:49;13.20;1.00
14277;DHT22;7222;57.346;12.150;2023-04-24T14:28:18;13.20;1.00
14277;DHT22;7222;57.346;12.150;2023-04-24T14:30:44;13.30;99.90
14277;DHT22;7222;57.346;12.150;2023-04-24T14:33:11;13.40;1.00
14277;DHT22;7222;57.346;12.150;2023-04-24T14:35:40;13.50;1.00
14277;DHT22;7222;57.346;12.150;2023-04-24T14:38:09;13.50;99.90
14277;DHT22;7222;57.346;12.150;2023-04-24T14:40:36;13.40;1.00
14277;DHT22;7222;57.346;12.150;2023-04-24T14:43:04;13.40;1.00
14277;DHT22;7222;57.346;12.150;2023-04-24T14:45:31;13.40;99.90
14277;DHT22;7222;57.346;12.150;2023-04-24T14:47:57;13.60;99.90
14277;DHT22;7222;57.346;12.150;2023-04-24T14:50:24;13.50;99.90
14277;DHT22;7222;57.346;12.150;2023-04-24T14:52:55;13.50;1.00
14277;DHT22;7222;57.346;12.150;2023-04-24T14:55:23;13.60;99.90
14277;DHT22;7222;57.346;12.150;2023-04-24T14:57:50;13.50;99.90
14277;DHT22;7222;57.346;12.150;2023-04-24T15:00:18;13.50;93.20
14277;DHT22;7222;57.346;12.150;2023-04-24T15:02:45;13.50;1.00
14277;DHT22;7222;57.346;12.150;2023-04-24T15:05:12;13.60;1.00
14277;DHT22;7222;57.346;12.150;2023-04-24T15:07:39;13.60;99.90
14277;DHT22;7222;57.346;12.150;2023-04-24T15:10:09;13.60;1.00
14277;DHT22;7222;57.346;12.150;2023-04-24T15:12:36;13.60;1.00
14277;DHT22;7222;57.346;12.150;2023-04-24T15:15:04;13.50;99.90
14277;DHT22;7222;57.346;12.150;2023-04-24T15:17:31;13.40;1.00
14277;DHT22;7222;57.346;12.150;2023-04-24T15:19:58;13.40;99.90
14277;DHT22;7222;57.346;12.150;2023-04-24T15:22:25;13.40;1.00
14277;DHT22;7222;57.346;12.150;2023-04-24T15:24:52;13.40;99.90
14277;DHT22;7222;57.346;12.150;2023-04-24T15:27:20;13.40;99.90
14277;DHT22;7222;57.346;12.150;2023-04-24T15:29:47;13.50;99.90
14277;DHT22;7222;57.346;12.150;2023-04-24T15:32:14;13.50;99.90
14277;DHT22;7222;57.346;12.150;2023-04-24T15:34:41;13.50;1.00
14277;DHT22;7222;57.346;12.150;2023-04-24T15:37:08;13.40;99.90
14277;DHT22;7222;57.346;12.150;2023-04-24T15:39:35;13.30;1.00
14277;DHT22;7222;57.346;12.150;2023-04-24T15:42:03;13.30;1.00
14277;DHT22;7222;57.346;12.150;2023-04-24T15:44:32;13.20;99.90
14277;DHT22;7222;57.346;12.150;2023-04-24T15:47:00;13.30;99.90